Time;durP1;ratioP1;P1;durP2;ratioP2;P2;SDS_P1;SDS_P2;PMS_P1;PMS_P2;Temp;Humidity;BMP_temperature;BMP_pressure;BME280_temperature;BME280_humidity;BME280_pressure;Samples;Min_cycle;Max_cycle;Signal;HPM_P1;HPM_P2
2022/06/27 00:00:21;;;;;;;1999.90;999.90;;;16.30;99.90;;;;;;5085287;28;20051;-75
2022/06/27 00:02:47;;;;;;;1999.90;999.90;;;16.30;99.90;;;;;;5056440;28;20114;-74
2022/06/27 00:05:12;;;;;;;1999.90;999.90;;;16.40;99.90;;;;;;5069223;28;20119;-75
2022/06/27 00:07:39;;;;;;;1999.90;999.90;;;16.30;99.90;;;;;;5063806;28;20028;-75
2022/06/27 00:10:06;;;;;;;1999.90;999.90;;;16.40;99.90;;;;;;5068639;28;20089;-75
2022/06/27 00:12:32;;;;;;;1999.90;999.90;;;16.40;99.90;;;;;;5059931;28;20083;-75
2022/06/27 00:14:58;;;;;;;1999.90;999.90;;;16.40;99.90;;;;;;5059032;28;20042;-74
2022/06/27 00:17:24;;;;;;;1999.90;999.90;;;16.40;99.90;;;;;;5072708;28;20036;-74
2022/06/27 00:19:50;;;;;;;1999.90;999.90;;;16.40;99.90;;;;;;5053332;28;20042;-74
2022/06/27 00:22:16;;;;;;;1999.90;999.90;;;16.40;99.90;;;;;;5089842;28;20490;-75
2022/06/27 00:24:42;;;;;;;1999.90;999.90;;;16.40;99.90;;;;;;5054194;28;20100;-74
2022/06/27 00:27:07;;;;;;;1999.90;999.90;;;16.40;99.90;;;;;;5054637;28;20040;-74
2022/06/27 00:29:33;;;;;;;1999.90;999.90;;;16.40;99.90;;;;;;5071934;28;20036;-75
2022/06/27 00:31:58;;;;;;;1999.90;999.90;;;16.40;99.90;;;;;;5087352;28;20550;-75
2022/06/27 00:34:24;;;;;;;1999.90;999.90;;;16.40;99.90;;;;;;5087780;28;20040;-75
2022/06/27 00:36:50;;;;;;;1999.90;999.90;;;16.40;99.90;;;;;;5053655;28;20043;-74
2022/06/27 00:39:15;;;;;;;1999.90;999.90;;;16.40;99.90;;;;;;5087132;28;20374;-75
2022/06/27 00:41:41;;;;;;;1999.90;999.90;;;16.40;99.90;;;;;;5083990;28;20054;-75
2022/06/27 00:44:06;;;;;;;1999.90;999.90;;;16.40;99.90;;;;;;5088567;28;20048;-75
2022/06/27 00:46:32;;;;;;;1999.90;999.90;;;16.50;99.90;;;;;;5058503;28;20055;-75
2022/06/27 00:48:58;;;;;;;1999.90;999.90;;;16.50;99.90;;;;;;5069181;28;20044;-75
2022/06/27 00:51:24;;;;;;;1999.90;999.90;;;16.50;99.90;;;;;;5055314;28;20474;-74
2022/06/27 00:53:54;;;;;;;1999.90;999.90;;;16.40;99.90;;;;;;5070277;28;20048;-75
2022/06/27 00:56:20;;;;;;;1999.90;999.90;;;16.50;99.90;;;;;;5069099;28;20743;-75
2022/06/27 00:58:46;;;;;;;1999.90;999.90;;;16.50;99.90;;;;;;5057009;28;20046;-75
2022/06/27 01:01:12;;;;;;;1999.90;999.90;;;16.50;99.90;;;;;;5071064;28;20032;-75
2022/06/27 01:03:38;;;;;;;1999.90;999.90;;;16.50;99.90;;;;;;5101949;28;20047;-75
2022/06/27 01:06:04;;;;;;;1999.90;999.90;;;16.40;99.90;;;;;;5087115;28;20115;-74
2022/06/27 01:08:30;;;;;;;1999.90;999.90;;;16.40;99.90;;;;;;5053704;28;20509;-75
2022/06/27 01:10:56;;;;;;;1999.90;999.90;;;16.40;99.90;;;;;;5052521;28;20067;-75
2022/06/27 01:13:23;;;;;;;1999.90;999.90;;;16.40;99.90;;;;;;5072197;28;20478;-75
2022/06/27 01:15:49;;;;;;;1999.90;999.90;;;16.40;99.90;;;;;;5086217;28;20078;-75
2022/06/27 01:18:15;;;;;;;1999.90;999.90;;;16.40;99.90;;;;;;5088452;28;20048;-75
2022/06/27 01:20:42;;;;;;;1999.90;999.90;;;16.30;99.90;;;;;;5097737;28;20036;-75
2022/06/27 01:23:08;;;;;;;1999.90;999.90;;;16.40;99.90;;;;;;5056284;28;20036;-74
2022/06/27 01:25:35;;;;;;;1999.90;999.90;;;16.30;99.90;;;;;;5069915;28;20040;-74
2022/06/27 01:28:03;;;;;;;1999.90;999.90;;;16.30;99.90;;;;;;5054182;28;20052;-75
2022/06/27 01:30:29;;;;;;;1999.90;999.90;;;16.30;99.90;;;;;;5054700;28;20067;-74
2022/06/27 01:32:55;;;;;;;1999.90;999.90;;;16.30;99.90;;;;;;5068421;28;20465;-74
2022/06/27 01:35:21;;;;;;;1999.90;999.90;;;16.40;99.90;;;;;;5056791;28;20048;-74
2022/06/27 01:37:46;;;;;;;1999.90;999.90;;;16.30;99.90;;;;;;5070928;28;20047;-75
2022/06/27 01:40:14;;;;;;;1999.90;999.90;;;16.30;99.90;;;;;;5069744;28;20405;-75
2022/06/27 01:42:40;;;;;;;1999.90;999.90;;;16.30;99.90;;;;;;5055059;28;20374;-74
2022/06/27 01:45:07;;;;;;;1999.90;999.90;;;16.30;99.90;;;;;;5069972;28;20048;-75
2022/06/27 01:47:32;;;;;;;1999.90;999.90;;;16.30;99.90;;;;;;5054312;28;20039;-74
2022/06/27 01:49:58;;;;;;;1999.90;999.90;;;16.40;99.90;;;;;;5084121;28;20047;-75
2022/06/27 01:52:27;;;;;;;1999.90;999.90;;;16.40;99.90;;;;;;5065472;28;20845;-74
2022/06/27 01:54:53;;;;;;;1999.90;999.90;;;16.40;99.90;;;;;;5069535;28;20046;-75
2022/06/27 01:57:20;;;;;;;1999.90;999.90;;;16.40;99.90;;;;;;5054842;28;20398;-75
2022/06/27 01:59:48;;;;;;;1999.90;999.90;;;16.40;99.90;;;;;;5054488;28;20039;-75
2022/06/27 02:02:14;;;;;;;1999.90;999.90;;;16.40;99.90;;;;;;5085952;28;20405;-74
2022/06/27 02:04:41;;;;;;;1999.90;999.90;;;16.40;99.90;;;;;;5102844;27;20052;-75
2022/06/27 02:07:07;;;;;;;1999.90;999.90;;;16.50;99.90;;;;;;5053137;28;20048;-74
2022/06/27 02:09:33;;;;;;;1999.90;999.90;;;16.50;99.90;;;;;;5051347;28;20433;-75
2022/06/27 02:12:18;;;;;;;1999.90;999.90;;;16.40;99.90;;;;;;5051374;28;20117;-74
2022/06/27 02:14:45;;;;;;;1999.90;999.90;;;16.50;99.90;;;;;;5054579;28;20040;-74
2022/06/27 02:17:11;;;;;;;1999.90;999.90;;;16.40;99.90;;;;;;5102746;27;20476;-75
2022/06/27 02:19:37;;;;;;;1999.90;999.90;;;16.40;99.90;;;;;;5053531;28;20048;-75
2022/06/27 02:22:03;;;;;;;1999.90;999.90;;;16.40;99.90;;;;;;5072420;28;20494;-74
2022/06/27 02:24:29;;;;;;;1999.90;999.90;;;16.40;99.90;;;;;;5055098;28;20048;-75
2022/06/27 02:26:55;;;;;;;1999.90;999.90;;;16.40;99.90;;;;;;5052202;28;20037;-74
2022/06/27 02:29:20;;;;;;;1999.90;999.90;;;16.40;99.90;;;;;;5086986;28;20035;-74
2022/06/27 02:31:50;;;;;;;1999.90;999.90;;;16.30;99.90;;;;;;5080910;28;20048;-74
2022/06/27 02:34:16;;;;;;;1999.90;999.90;;;16.30;99.90;;;;;;5085054;28;20481;-74
2022/06/27 02:36:42;;;;;;;1999.90;999.90;;;16.30;99.90;;;;;;5053162;28;20043;-74
2022/06/27 02:39:15;;;;;;;1999.90;999.90;;;16.30;99.90;;;;;;5061015;28;20040;-74
2022/06/27 02:41:43;;;;;;;1999.90;999.90;;;16.20;99.90;;;;;;5054313;28;20086;-75
2022/06/27 02:44:14;;;;;;;1999.90;999.90;;;16.20;99.90;;;;;;5104756;27;20087;-75
2022/06/27 02:46:40;;;;;;;1999.90;999.90;;;16.20;99.90;;;;;;5069985;28;20138;-74
2022/06/27 02:49:06;;;;;;;1999.90;999.90;;;16.20;99.90;;;;;;5063874;28;20049;-74
2022/06/27 02:51:54;;;;;;;1999.90;999.90;;;16.20;99.90;;;;;;5081459;28;20036;-75
2022/06/27 02:54:26;;;;;;;1999.90;999.90;;;16.20;99.90;;;;;;5077510;28;20062;-74
2022/06/27 02:57:10;;;;;;;1999.90;999.90;;;16.20;99.90;;;;;;5069456;28;20527;-74
2022/06/27 02:59:38;;;;;;;1999.90;999.90;;;16.20;99.90;;;;;;5068276;28;20052;-75
2022/06/27 03:02:08;;;;;;;1999.90;999.90;;;16.20;99.90;;;;;;5050385;28;20108;-74
2022/06/27 03:04:33;;;;;;;1999.90;999.90;;;16.20;99.90;;;;;;5052484;28;20496;-74
2022/06/27 03:06:59;;;;;;;1999.90;999.90;;;16.20;99.90;;;;;;5079773;28;20040;-74
2022/06/27 03:09:25;;;;;;;1999.90;999.90;;;16.20;99.90;;;;;;5067686;28;20047;-74
2022/06/27 03:11:50;;;;;;;1999.90;999.90;;;16.20;99.90;;;;;;5067510;28;20043;-74
2022/06/27 03:14:16;;;;;;;1999.90;999.90;;;16.10;99.90;;;;;;5074666;28;20067;-74
2022/06/27 03:16:42;;;;;;;1999.90;999.90;;;16.10;99.90;;;;;;5064630;28;20033;-74
2022/06/27 03:19:08;;;;;;;1999.90;999.90;;;16.20;99.90;;;;;;5086206;28;20036;-74
2022/06/27 03:21:34;;;;;;;1999.90;999.90;;;16.10;99.90;;;;;;5068586;28;20047;-75
2022/06/27 03:24:00;;;;;;;1999.90;999.90;;;16.10;99.90;;;;;;5050788;28;20036;-74
2022/06/27 03:26:26;;;;;;;1999.90;999.90;;;16.10;99.90;;;;;;5052046;28;20040;-74
2022/06/27 03:28:51;;;;;;;1999.90;999.90;;;16.10;99.90;;;;;;5082856;28;20040;-74
2022/06/27 03:31:17;;;;;;;1999.90;999.90;;;16.10;99.90;;;;;;5102248;28;20046;-74
2022/06/27 03:33:43;;;;;;;1999.90;999.90;;;16.10;99.90;;;;;;5105827;28;20082;-74
2022/06/27 03:36:09;;;;;;;1999.90;999.90;;;16.10;99.90;;;;;;5067356;28;20097;-75
2022/06/27 03:38:35;;;;;;;1999.90;999.90;;;16.10;99.90;;;;;;5084155;28;20048;-74
2022/06/27 03:41:01;;;;;;;1999.90;999.90;;;16.10;99.90;;;;;;5069096;28;20424;-74
2022/06/27 03:43:27;;;;;;;1999.90;999.90;;;16.10;99.90;;;;;;5051173;28;20080;-74
2022/06/27 03:45:54;;;;;;;1999.90;999.90;;;16.20;99.90;;;;;;5054995;28;20116;-74
2022/06/27 03:51:03;;;;;;;1999.90;999.90;;;16.20;99.90;;;;;;5070215;28;20522;-75
2022/06/27 03:53:29;;;;;;;1999.90;999.90;;;16.20;99.90;;;;;;5072977;28;20035;-74
2022/06/27 03:55:55;;;;;;;1999.90;999.90;;;16.20;99.90;;;;;;5089673;28;20051;-74
2022/06/27 03:58:20;;;;;;;1999.90;999.90;;;16.20;99.90;;;;;;5084649;28;20118;-74
2022/06/27 04:00:46;;;;;;;1999.90;999.90;;;16.20;99.90;;;;;;5056785;28;20086;-74
2022/06/27 04:03:12;;;;;;;1999.90;999.90;;;16.20;99.90;;;;;;5089242;28;20047;-74
2022/06/27 04:05:37;;;;;;;1999.90;999.90;;;16.20;99.90;;;;;;5069931;28;20485;-75
2022/06/27 04:08:04;;;;;;;1999.90;999.90;;;16.20;99.90;;;;;;5057595;28;20502;-75
2022/06/27 04:10:29;;;;;;;1999.90;999.90;;;16.20;99.90;;;;;;5066369;28;20040;-75
2022/06/27 04:12:55;;;;;;;1999.90;999.90;;;16.20;99.90;;;;;;5051560;28;20335;-74
2022/06/27 04:15:21;;;;;;;1999.90;999.90;;;16.20;99.90;;;;;;5091180;28;20028;-74
2022/06/27 04:17:46;;;;;;;1999.90;999.90;;;16.30;99.90;;;;;;5072058;28;20040;-75
2022/06/27 04:20:12;;;;;;;1999.90;999.90;;;16.30;99.90;;;;;;5104130;28;20036;-74
2022/06/27 04:22:38;;;;;;;1999.90;999.90;;;16.30;99.90;;;;;;5071708;28;20040;-74
2022/06/27 04:25:04;;;;;;;1999.90;999.90;;;16.30;99.90;;;;;;5075774;28;20075;-74
2022/06/27 04:27:30;;;;;;;1999.90;999.90;;;16.40;99.90;;;;;;5063962;28;20477;-74
2022/06/27 04:29:56;;;;;;;1999.90;999.90;;;16.40;99.90;;;;;;5075038;28;20035;-74
2022/06/27 04:32:23;;;;;;;1999.90;999.90;;;16.50;99.90;;;;;;5055669;28;20071;-74
2022/06/27 04:34:49;;;;;;;1999.90;999.90;;;16.60;99.90;;;;;;5059272;28;20111;-74
2022/06/27 04:37:16;;;;;;;1999.90;999.90;;;16.60;99.90;;;;;;5088570;28;20556;-75
2022/06/27 04:39:42;;;;;;;1999.90;999.90;;;16.70;99.90;;;;;;5105938;28;20052;-74
2022/06/27 04:42:08;;;;;;;1999.90;999.90;;;16.80;99.90;;;;;;5071550;28;20051;-75
2022/06/27 04:44:36;;;;;;;1999.90;999.90;;;16.70;99.90;;;;;;5055245;28;20043;-74
2022/06/27 04:47:04;;;;;;;1999.90;999.90;;;16.80;99.90;;;;;;5071099;28;20409;-74
2022/06/27 04:49:30;;;;;;;1999.90;999.90;;;16.80;99.90;;;;;;5053555;28;20040;-74
2022/06/27 04:51:58;;;;;;;1999.90;999.90;;;16.90;99.90;;;;;;5088310;28;20051;-74
2022/06/27 04:54:25;;;;;;;1999.90;999.90;;;16.90;99.90;;;;;;5067769;28;20044;-75
2022/06/27 04:56:52;;;;;;;1999.90;999.90;;;16.90;99.90;;;;;;5068573;28;20039;-74
2022/06/27 04:59:20;;;;;;;1999.90;999.90;;;16.90;99.90;;;;;;5071033;28;20039;-75
2022/06/27 05:01:47;;;;;;;1999.90;999.90;;;16.90;99.90;;;;;;5070728;28;20047;-74
2022/06/27 05:04:13;;;;;;;1999.90;999.90;;;16.90;99.90;;;;;;5086220;28;20079;-74
2022/06/27 05:06:38;;;;;;;1999.90;999.90;;;17.00;99.90;;;;;;5069124;28;20066;-74
2022/06/27 05:09:04;;;;;;;1999.90;999.90;;;17.00;99.90;;;;;;5084725;28;20028;-74
2022/06/27 05:11:30;;;;;;;1999.90;999.90;;;17.00;99.90;;;;;;5068832;28;20079;-75
2022/06/27 05:13:55;;;;;;;1999.90;999.90;;;17.10;99.90;;;;;;5069723;28;20040;-74
2022/06/27 05:16:21;;;;;;;1999.90;999.90;;;17.10;99.90;;;;;;5072843;28;20047;-75
2022/06/27 05:18:46;;;;;;;1999.90;999.90;;;17.10;99.90;;;;;;5104496;27;20028;-75
2022/06/27 05:21:12;;;;;;;1999.90;999.90;;;17.20;99.90;;;;;;5064846;28;20798;-74
2022/06/27 05:23:38;;;;;;;1999.90;999.90;;;17.20;99.90;;;;;;5071508;28;20141;-75
2022/06/27 05:26:07;;;;;;;1999.90;999.90;;;17.10;99.90;;;;;;5054147;28;20130;-74
2022/06/27 05:28:33;;;;;;;1999.90;999.90;;;17.10;99.90;;;;;;5055725;28;20036;-75
2022/06/27 05:30:59;;;;;;;1999.90;999.90;;;17.10;99.90;;;;;;5055668;28;20067;-75
2022/06/27 05:33:24;;;;;;;1999.90;999.90;;;17.10;99.90;;;;;;5068997;28;20059;-75
2022/06/27 05:35:51;;;;;;;1999.90;999.90;;;17.20;99.90;;;;;;5054259;28;20036;-74
2022/06/27 05:38:17;;;;;;;1999.90;999.90;;;17.20;99.90;;;;;;5104558;28;20123;-75
2022/06/27 05:40:44;;;;;;;1999.90;999.90;;;17.20;99.90;;;;;;5086580;28;20151;-75
2022/06/27 05:43:10;;;;;;;1999.90;999.90;;;17.30;99.90;;;;;;5054159;28;20410;-75
2022/06/27 05:45:36;;;;;;;1999.90;999.90;;;17.30;99.90;;;;;;5073136;28;20281;-75
2022/06/27 05:48:03;;;;;;;1999.90;999.90;;;17.40;99.90;;;;;;5074090;28;20052;-75
2022/06/27 05:50:31;;;;;;;1999.90;999.90;;;17.40;99.90;;;;;;5104611;27;20406;-75
2022/06/27 05:52:59;;;;;;;1999.90;999.90;;;17.50;99.90;;;;;;5053642;28;20044;-75
2022/06/27 05:55:28;;;;;;;1999.90;999.90;;;17.60;99.90;;;;;;5098779;28;20047;-75
2022/06/27 05:57:58;;;;;;;1999.90;999.90;;;17.60;99.90;;;;;;5100991;27;20039;-75
2022/06/27 06:00:24;;;;;;;1999.90;999.90;;;17.70;99.90;;;;;;5104505;27;20044;-75
2022/06/27 06:02:53;;;;;;;1999.90;999.90;;;17.80;99.90;;;;;;5073684;28;20453;-75
2022/06/27 06:05:19;;;;;;;1999.90;999.90;;;17.70;99.90;;;;;;5070723;28;20093;-75
2022/06/27 06:07:46;;;;;;;1999.90;999.90;;;17.80;99.90;;;;;;5076817;28;20040;-74
2022/06/27 06:10:12;;;;;;;1999.90;999.90;;;17.80;99.90;;;;;;5071606;28;20036;-75
2022/06/27 06:12:38;;;;;;;1999.90;999.90;;;17.80;99.90;;;;;;5067730;28;20092;-74
2022/06/27 06:15:05;;;;;;;1999.90;999.90;;;17.80;99.90;;;;;;5054180;28;20040;-74
2022/06/27 06:17:33;;;;;;;1999.90;999.90;;;17.80;99.90;;;;;;5103885;27;20127;-75
2022/06/27 06:19:59;;;;;;;1999.90;999.90;;;17.80;99.90;;;;;;5105768;27;20550;-74
2022/06/27 06:22:25;;;;;;;1999.90;999.90;;;17.80;99.90;;;;;;5084304;28;20089;-75
2022/06/27 06:24:51;;;;;;;1999.90;999.90;;;17.90;99.90;;;;;;5075228;28;20055;-75
2022/06/27 06:27:18;;;;;;;1999.90;999.90;;;17.90;99.90;;;;;;5072117;28;20040;-75
2022/06/27 06:29:44;;;;;;;1999.90;999.90;;;17.90;99.90;;;;;;5044475;28;20126;-75
2022/06/27 06:32:11;;;;;;;1999.90;999.90;;;18.00;99.90;;;;;;5078791;28;20405;-75
2022/06/27 06:34:37;;;;;;;1999.90;999.90;;;18.00;99.90;;;;;;5053558;28;20047;-75
2022/06/27 06:37:05;;;;;;;1999.90;999.90;;;18.00;99.90;;;;;;5064843;28;20044;-75
2022/06/27 06:39:30;;;;;;;1999.90;999.90;;;18.00;99.90;;;;;;5057616;28;20052;-75
2022/06/27 06:41:57;;;;;;;1999.90;999.90;;;17.90;99.90;;;;;;5055414;28;20580;-75
2022/06/27 06:44:24;;;;;;;1999.90;999.90;;;17.90;99.90;;;;;;5077610;28;20036;-75
2022/06/27 06:46:50;;;;;;;1999.90;999.90;;;17.90;99.90;;;;;;5078436;28;20050;-75
2022/06/27 06:49:16;;;;;;;1999.90;999.90;;;17.90;99.90;;;;;;5097023;28;20536;-75
2022/06/27 06:51:42;;;;;;;1999.90;999.90;;;18.00;99.90;;;;;;5090914;28;20040;-75
2022/06/27 06:54:12;;;;;;;1999.90;999.90;;;18.00;99.90;;;;;;5089850;28;20044;-75
2022/06/27 06:56:38;;;;;;;1999.90;999.90;;;18.00;99.90;;;;;;5074738;28;20437;-75
2022/06/27 06:59:05;;;;;;;1999.90;999.90;;;18.00;99.90;;;;;;5087763;28;20124;-75
2022/06/27 07:01:35;;;;;;;1999.90;999.90;;;18.00;99.90;;;;;;5082978;28;20047;-75
2022/06/27 07:04:01;;;;;;;1999.90;999.90;;;18.00;99.90;;;;;;5086879;28;20044;-75
2022/06/27 07:06:29;;;;;;;1999.90;999.90;;;18.00;99.90;;;;;;5085371;28;20122;-75
2022/06/27 07:08:57;;;;;;;1999.90;999.90;;;18.00;99.90;;;;;;5058128;28;20039;-75
2022/06/27 07:11:35;;;;;;;1999.90;999.90;;;18.00;99.90;;;;;;5051788;28;20072;-75
2022/06/27 07:14:00;;;;;;;1999.90;999.90;;;18.10;99.90;;;;;;5048195;28;20036;-75
2022/06/27 07:16:26;;;;;;;1999.90;999.90;;;18.10;99.90;;;;;;5063763;28;20040;-75
2022/06/27 07:18:54;;;;;;;1999.90;999.90;;;18.20;99.90;;;;;;5073283;28;20406;-75
2022/06/27 07:21:21;;;;;;;1999.90;999.90;;;18.30;99.90;;;;;;5078500;28;20470;-75
2022/06/27 07:23:48;;;;;;;1999.90;999.90;;;18.20;99.90;;;;;;5071845;28;20040;-75
2022/06/27 07:26:16;;;;;;;1999.90;999.90;;;18.30;99.90;;;;;;5085996;28;20094;-75
2022/06/27 07:28:42;;;;;;;1999.90;999.90;;;18.40;99.90;;;;;;5069663;28;20455;-75
2022/06/27 07:31:09;;;;;;;1999.90;999.90;;;18.50;99.90;;;;;;5085671;28;20121;-75
2022/06/27 07:33:39;;;;;;;1999.90;999.90;;;18.60;99.90;;;;;;5059868;28;20048;-75
2022/06/27 07:36:06;;;;;;;1999.90;999.90;;;18.60;99.90;;;;;;5061191;28;20044;-75
2022/06/27 07:38:38;;;;;;;1999.90;999.90;;;18.60;99.90;;;;;;5047654;28;20044;-75
2022/06/27 07:41:07;;;;;;;1999.90;999.90;;;18.60;99.90;;;;;;5074456;28;20068;-75
2022/06/27 07:43:33;;;;;;;1999.90;999.90;;;18.60;99.90;;;;;;5037620;28;20052;-75
2022/06/27 07:46:01;;;;;;;1999.90;999.90;;;18.50;99.90;;;;;;5038286;28;20491;-75
2022/06/27 07:48:28;;;;;;;1999.90;999.90;;;18.40;99.90;;;;;;5033560;28;20048;-75
2022/06/27 07:50:55;;;;;;;1999.90;999.90;;;18.30;99.90;;;;;;5067684;28;20470;-75
2022/06/27 07:53:22;;;;;;;1999.90;999.90;;;18.30;99.90;;;;;;5028869;28;20045;-75
2022/06/27 07:55:57;;;;;;;1999.90;999.90;;;18.30;99.90;;;;;;5050463;28;20437;-75
2022/06/27 07:58:35;;;;;;;1999.90;999.90;;;18.20;99.90;;;;;;5084021;28;20072;-75
2022/06/27 08:01:10;;;;;;;1999.90;999.90;;;18.20;99.90;;;;;;5039137;28;20132;-75
2022/06/27 08:03:40;;;;;;;1999.90;999.90;;;18.10;99.90;;;;;;5066395;28;20489;-75
2022/06/27 08:06:15;;;;;;;1999.90;999.90;;;18.20;99.90;;;;;;5046611;28;20060;-75
2022/06/27 08:08:43;;;;;;;1999.90;999.90;;;18.20;99.90;;;;;;5044256;28;20049;-75
2022/06/27 08:11:12;;;;;;;1999.90;999.90;;;18.30;99.90;;;;;;5050228;28;20041;-75
2022/06/27 08:13:38;;;;;;;1999.90;999.90;;;18.40;99.90;;;;;;5065238;28;20037;-75
2022/06/27 08:16:05;;;;;;;1999.90;999.90;;;18.50;99.90;;;;;;5056167;28;20052;-75
2022/06/27 08:18:31;;;;;;;1999.90;999.90;;;18.50;99.90;;;;;;5039209;28;20049;-75
2022/06/27 08:21:01;;;;;;;1999.90;999.90;;;18.60;99.90;;;;;;5061415;28;20075;-75
2022/06/27 08:23:28;;;;;;;1999.90;999.90;;;18.60;99.90;;;;;;5057716;28;20048;-75
2022/06/27 08:25:54;;;;;;;1999.90;999.90;;;18.60;99.90;;;;;;5031780;28;20460;-75
2022/06/27 08:28:21;;;;;;;1999.90;999.90;;;18.70;99.90;;;;;;5031809;28;20049;-75
2022/06/27 08:30:48;;;;;;;1999.90;999.90;;;18.80;99.90;;;;;;5044784;28;20036;-76
2022/06/27 08:33:14;;;;;;;1999.90;999.90;;;18.90;99.90;;;;;;5031478;28;20024;-75
2022/06/27 08:35:44;;;;;;;1999.90;999.90;;;19.00;99.90;;;;;;5046234;28;20036;-75
2022/06/27 08:38:10;;;;;;;1999.90;999.90;;;19.10;99.90;;;;;;5063440;28;20037;-75
2022/06/27 08:40:36;;;;;;;1999.90;999.90;;;19.10;99.90;;;;;;5042235;28;20117;-75
2022/06/27 08:43:02;;;;;;;1999.90;999.90;;;19.10;99.90;;;;;;5067549;28;20673;-75
2022/06/27 08:45:28;;;;;;;1999.90;999.90;;;19.10;99.90;;;;;;5053843;28;20041;-75
2022/06/27 08:47:58;;;;;;;1999.90;999.90;;;19.20;99.90;;;;;;5049154;28;20040;-75
2022/06/27 08:50:24;;;;;;;1999.90;999.90;;;19.20;99.90;;;;;;5058128;28;20047;-75
2022/06/27 08:52:52;;;;;;;1999.90;999.90;;;19.20;99.90;;;;;;5064874;28;20051;-75
2022/06/27 08:55:18;;;;;;;1999.90;999.90;;;19.20;99.90;;;;;;5064151;28;20152;-75
2022/06/27 08:57:45;;;;;;;1999.90;999.90;;;19.30;99.90;;;;;;5060841;28;20112;-75
2022/06/27 09:00:14;;;;;;;1999.90;999.90;;;19.30;99.90;;;;;;5068588;28;20402;-75
2022/06/27 09:02:43;;;;;;;1999.90;999.90;;;19.40;99.90;;;;;;5052099;28;20044;-75
2022/06/27 09:05:16;;;;;;;1999.90;999.90;;;19.50;99.90;;;;;;5066988;28;20045;-75
2022/06/27 09:07:48;;;;;;;1999.90;999.90;;;19.70;99.90;;;;;;5068768;28;20128;-75
2022/06/27 09:10:27;;;;;;;1999.90;999.90;;;20.10;99.90;;;;;;5068812;28;20064;-75
2022/06/27 09:13:08;;;;;;;1999.90;999.90;;;20.30;99.90;;;;;;5063969;28;20060;-75
2022/06/27 09:15:37;;;;;;;1999.90;999.90;;;20.60;99.90;;;;;;5051205;28;20044;-75
2022/06/27 09:18:06;;;;;;;1999.90;999.90;;;20.90;99.90;;;;;;5050352;28;20044;-75
2022/06/27 09:20:46;;;;;;;1999.90;999.90;;;21.10;99.90;;;;;;5071749;28;20047;-75
2022/06/27 09:23:31;;;;;;;1999.90;999.90;;;21.10;99.90;;;;;;5069419;28;20067;-75
2022/06/27 09:26:03;;;;;;;1999.90;999.90;;;21.10;99.90;;;;;;5067812;28;20039;-75
2022/06/27 09:28:42;;;;;;;1999.90;999.90;;;21.10;99.90;;;;;;5051468;28;20083;-75
2022/06/27 09:31:28;;;;;;;1999.90;999.90;;;21.00;99.90;;;;;;5071701;28;20524;-75
2022/06/27 09:34:23;;;;;;;1999.90;999.90;;;20.90;99.90;;;;;;5066936;28;20040;-75
2022/06/27 09:36:55;;;;;;;1999.90;999.90;;;20.90;99.90;;;;;;5051187;28;20082;-75
2022/06/27 09:39:35;;;;;;;1999.90;999.90;;;20.80;99.90;;;;;;5065033;28;20174;-75
2022/06/27 09:42:10;;;;;;;1999.90;999.90;;;20.80;99.90;;;;;;5072068;28;20056;-75
2022/06/27 09:44:40;;;;;;;1999.90;999.90;;;20.70;99.90;;;;;;5107746;27;20562;-75
2022/06/27 09:47:09;;;;;;;1999.90;999.90;;;20.70;99.90;;;;;;5068683;28;20063;-75
2022/06/27 09:49:37;;;;;;;1999.90;999.90;;;20.70;99.90;;;;;;5093437;28;20486;-75
2022/06/27 09:52:09;;;;;;;1999.90;999.90;;;20.60;99.90;;;;;;5096771;27;20044;-75
2022/06/27 09:54:36;;;;;;;1999.90;999.90;;;20.50;99.90;;;;;;5050507;28;20044;-75
2022/06/27 09:57:03;;;;;;;1999.90;999.90;;;20.40;99.90;;;;;;5053586;28;20027;-75
2022/06/27 09:59:30;;;;;;;1999.90;999.90;;;20.50;99.90;;;;;;5083325;28;20079;-75
2022/06/27 10:01:57;;;;;;;1999.90;999.90;;;20.40;99.90;;;;;;5053156;28;20035;-75
2022/06/27 10:04:29;;;;;;;1999.90;999.90;;;20.30;99.90;;;;;;5053811;28;20051;-75
2022/06/27 10:06:58;;;;;;;1999.90;999.90;;;20.20;99.90;;;;;;5070179;28;20047;-75
2022/06/27 10:09:25;;;;;;;1999.90;999.90;;;20.20;99.90;;;;;;5069164;28;20036;-75
2022/06/27 10:12:20;;;;;;;1999.90;999.90;;;20.20;99.90;;;;;;5070179;28;20450;-75
2022/06/27 10:15:06;;;;;;;1999.90;999.90;;;20.10;99.90;;;;;;5070197;28;20512;-75
2022/06/27 10:17:35;;;;;;;1999.90;999.90;;;20.20;99.90;;;;;;5069346;28;20047;-75
2022/06/27 10:20:06;;;;;;;1999.90;999.90;;;20.30;99.90;;;;;;5070755;28;20040;-75
2022/06/27 10:22:32;;;;;;;1999.90;999.90;;;20.40;99.90;;;;;;5069655;28;20509;-75
2022/06/27 10:25:27;;;;;;;1999.90;999.90;;;20.40;99.90;;;;;;5101689;28;20032;-74
2022/06/27 10:28:12;;;;;;;1999.90;999.90;;;20.50;99.90;;;;;;5081121;28;20040;-75
2022/06/27 10:30:39;;;;;;;1999.90;999.90;;;20.60;99.90;;;;;;5083152;28;20044;-74
2022/06/27 10:33:26;;;;;;;1999.90;999.90;;;20.60;99.90;;;;;;5050474;28;20040;-75
2022/06/27 10:35:57;;;;;;;1999.90;999.90;;;20.60;99.90;;;;;;5099093;28;20036;-75
2022/06/27 10:38:39;;;;;;;1999.90;999.90;;;20.70;99.90;;;;;;5061021;28;20074;-75
2022/06/27 10:41:10;;;;;;;1999.90;999.90;;;20.60;99.90;;;;;;5092078;28;20543;-75
2022/06/27 10:43:37;;;;;;;1999.90;999.90;;;20.60;99.90;;;;;;5051607;28;20055;-75
2022/06/27 10:46:09;;;;;;;1999.90;999.90;;;20.50;99.90;;;;;;5049106;28;20042;-75
2022/06/27 10:48:43;;;;;;;1999.90;999.90;;;20.40;99.90;;;;;;5054777;28;20101;-75
2022/06/27 10:51:18;;;;;;;1999.90;999.90;;;20.40;99.90;;;;;;5054161;28;20039;-75
2022/06/27 10:53:44;;;;;;;1999.90;999.90;;;20.40;99.90;;;;;;5069967;28;20071;-75
2022/06/27 10:56:31;;;;;;;1999.90;999.90;;;20.30;99.90;;;;;;5054360;28;20083;-75
2022/06/27 10:59:27;;;;;;;1999.90;999.90;;;20.40;99.90;;;;;;5061064;28;20039;-75
2022/06/27 11:01:57;;;;;;;1999.90;999.90;;;20.40;99.90;;;;;;5066121;28;20187;-75
2022/06/27 11:04:34;;;;;;;1999.90;999.90;;;20.50;99.90;;;;;;5080537;28;20079;-75
2022/06/27 11:07:10;;;;;;;1999.90;999.90;;;20.60;99.90;;;;;;5051442;28;20047;-75
2022/06/27 11:09:47;;;;;;;1999.90;999.90;;;20.50;99.90;;;;;;5090406;28;20055;-75
2022/06/27 11:12:18;;;;;;;1999.90;999.90;;;20.60;99.90;;;;;;5104378;27;20574;-75
2022/06/27 11:14:50;;;;;;;1999.90;999.90;;;20.80;99.90;;;;;;5071661;28;20081;-76
2022/06/27 11:17:35;;;;;;;;;;;20.90;99.90;;;;;;5068377;28;20100;-75
2022/06/27 11:20:20;;;;;;;1999.90;999.90;;;20.90;99.90;;;;;;5081991;28;20301;-75
2022/06/27 11:22:54;;;;;;;1999.90;999.90;;;20.90;99.90;;;;;;5069761;28;20434;-75
2022/06/27 11:25:21;;;;;;;1999.90;999.90;;;20.80;99.90;;;;;;5095597;28;20036;-75
2022/06/27 11:27:50;;;;;;;1999.90;999.90;;;20.70;99.90;;;;;;5051667;28;20036;-75
2022/06/27 11:33:15;;;;;;;1999.90;999.90;;;20.80;99.90;;;;;;5062936;28;20044;-75
2022/06/27 11:35:41;;;;;;;1999.90;999.90;;;21.00;99.90;;;;;;5079308;28;20040;-75
2022/06/27 11:38:07;;;;;;;1999.90;999.90;;;20.90;99.90;;;;;;5068805;28;20477;-75
2022/06/27 11:40:33;;;;;;;1999.90;999.90;;;20.90;99.90;;;;;;5038826;28;20418;-75
2022/06/27 11:42:58;;;;;;;1999.90;999.90;;;20.90;99.90;;;;;;5049177;28;20041;-75
2022/06/27 11:45:24;;;;;;;1999.90;999.90;;;21.10;99.90;;;;;;5033880;28;20234;-75
2022/06/27 11:47:50;;;;;;;1999.90;999.90;;;21.20;99.90;;;;;;5063909;28;20043;-75
2022/06/27 11:50:18;;;;;;;1999.90;999.90;;;21.20;99.90;;;;;;5073092;28;20108;-75
2022/06/27 11:52:51;;;;;;;1999.90;999.90;;;21.20;99.90;;;;;;5096766;28;20044;-75
2022/06/27 11:55:18;;;;;;;1999.90;999.90;;;21.30;99.90;;;;;;5095459;28;20040;-75
2022/06/27 11:57:49;;;;;;;1999.90;999.90;;;21.40;99.90;;;;;;5067767;28;20085;-75
2022/06/27 12:00:24;;;;;;;1999.90;999.90;;;21.50;99.90;;;;;;5093211;28;20126;-75
2022/06/27 12:03:04;;;;;;;1999.90;999.90;;;21.60;99.90;;;;;;5063223;28;20056;-75
2022/06/27 12:05:30;;;;;;;1999.90;999.90;;;21.60;99.90;;;;;;5098157;28;20540;-75
2022/06/27 12:07:58;;;;;;;1999.90;999.90;;;21.50;99.90;;;;;;5103730;27;20075;-75
2022/06/27 12:13:37;;;;;;;1999.90;999.90;;;21.40;99.90;;;;;;5092994;28;20040;-75